createdAt,value
2017-10-27T00:01:30.780Z,23.60
2017-10-27T00:03:57.358Z,24.03
2017-10-27T00:06:23.944Z,24.50
2017-10-27T00:08:50.525Z,23.33
2017-10-27T00:11:17.123Z,22.80
2017-10-27T00:13:43.696Z,22.50
2017-10-27T00:16:10.276Z,24.53
2017-10-27T00:18:36.868Z,24.33
2017-10-27T00:21:03.453Z,23.50
2017-10-27T00:23:30.076Z,23.03
2017-10-27T00:25:56.652Z,22.40
2017-10-27T00:28:23.237Z,23.17
2017-10-27T00:30:49.820Z,22.87
2017-10-27T00:33:16.402Z,21.67
2017-10-27T00:35:43.000Z,21.97
2017-10-27T00:38:09.587Z,22.13
2017-10-27T00:40:36.197Z,23.87
2017-10-27T00:43:02.883Z,23.53
2017-10-27T00:45:29.442Z,24.10
2017-10-27T00:47:56.034Z,24.73
2017-10-27T00:50:23.140Z,23.40
2017-10-27T00:52:49.723Z,22.27
2017-10-27T00:55:16.306Z,24.50
2017-10-27T00:57:42.892Z,22.20
2017-10-27T01:00:09.501Z,23.70
2017-10-27T01:02:36.085Z,24.70
2017-10-27T01:05:02.670Z,24.03
2017-10-27T01:07:30.121Z,23.90
2017-10-27T01:09:56.701Z,25.23
2017-10-27T01:12:23.293Z,25.97
2017-10-27T01:14:49.877Z,25.67
2017-10-27T01:17:16.456Z,26.47
2017-10-27T01:19:43.073Z,26.10
2017-10-27T01:22:09.649Z,25.80
2017-10-27T01:24:36.242Z,27.33
2017-10-27T01:27:02.821Z,28.00
2017-10-27T01:29:29.405Z,28.43
2017-10-27T01:31:55.993Z,29.33
2017-10-27T01:34:22.569Z,29.13
2017-10-27T01:36:49.161Z,29.30
2017-10-27T01:39:15.741Z,29.20
2017-10-27T01:41:42.321Z,28.67
2017-10-27T01:44:08.909Z,28.40
2017-10-27T01:46:35.488Z,28.83
2017-10-27T01:49:02.077Z,29.03
2017-10-27T01:51:28.658Z,29.70
2017-10-27T01:53:55.237Z,28.87
2017-10-27T01:56:21.831Z,28.80
2017-10-27T01:58:48.404Z,28.97
2017-10-27T02:01:15.005Z,28.43
2017-10-27T02:03:41.584Z,29.23
2017-10-27T02:06:08.170Z,28.47
2017-10-27T02:08:34.748Z,29.03
2017-10-27T02:11:01.341Z,27.03
2017-10-27T02:13:27.925Z,25.00
2017-10-27T02:15:54.504Z,26.23
2017-10-27T02:18:21.092Z,26.10
2017-10-27T02:20:47.671Z,24.77
2017-10-27T02:23:14.260Z,25.43
2017-10-27T02:25:40.858Z,24.67
2017-10-27T02:28:07.433Z,25.97
2017-10-27T02:30:34.024Z,25.40
2017-10-27T02:33:00.601Z,25.40
2017-10-27T02:35:27.175Z,24.70
2017-10-27T02:37:53.772Z,24.33
2017-10-27T02:40:20.348Z,23.70
2017-10-27T02:42:46.932Z,24.27
2017-10-27T02:45:13.533Z,24.40
2017-10-27T02:47:40.125Z,23.13
2017-10-27T02:50:06.708Z,24.67
2017-10-27T02:52:33.288Z,24.83
2017-10-27T02:54:59.864Z,26.00
2017-10-27T02:57:26.449Z,24.93
2017-10-27T02:59:53.025Z,24.23
2017-10-27T03:02:19.609Z,23.00
2017-10-27T03:04:46.189Z,24.43
2017-10-27T03:07:13.553Z,24.27
2017-10-27T03:09:40.131Z,25.33
2017-10-27T03:12:06.734Z,22.53
2017-10-27T03:14:33.317Z,23.80
2017-10-27T03:16:59.893Z,24.00
2017-10-27T03:19:26.472Z,24.53
2017-10-27T03:21:53.056Z,24.20
2017-10-27T03:24:19.637Z,22.30
2017-10-27T03:26:46.235Z,23.00
2017-10-27T03:29:12.814Z,21.60
2017-10-27T03:31:39.392Z,22.50
2017-10-27T03:34:05.983Z,22.20
2017-10-27T03:36:32.560Z,22.67
2017-10-27T03:38:59.148Z,19.57
2017-10-27T03:41:26.028Z,20.30
2017-10-27T03:43:52.604Z,18.40
2017-10-27T03:46:19.197Z,18.53
2017-10-27T03:48:45.781Z,18.23
2017-10-27T03:51:12.372Z,17.87
2017-10-27T03:53:38.944Z,16.83
2017-10-27T03:56:05.521Z,16.30
2017-10-27T03:58:32.824Z,16.93
2017-10-27T04:00:59.391Z,17.93
2017-10-27T04:03:26.038Z,16.80
2017-10-27T04:05:52.627Z,16.67
2017-10-27T04:08:19.270Z,16.27
2017-10-27T04:10:45.848Z,18.33
2017-10-27T04:13:12.463Z,17.00
2017-10-27T04:15:39.065Z,18.07
2017-10-27T04:18:05.641Z,18.50
2017-10-27T04:20:32.224Z,17.80
2017-10-27T04:22:58.824Z,17.80
2017-10-27T04:25:25.419Z,18.63
2017-10-27T04:27:51.996Z,18.20
2017-10-27T04:30:18.583Z,18.90
2017-10-27T04:32:45.160Z,18.27
2017-10-27T04:35:11.757Z,18.30
2017-10-27T04:37:38.336Z,17.20
2017-10-27T04:40:04.969Z,17.23
2017-10-27T04:42:31.558Z,17.27
2017-10-27T04:44:58.136Z,18.17
2017-10-27T04:47:24.724Z,18.33
2017-10-27T04:49:51.305Z,18.50
2017-10-27T04:52:17.899Z,17.67
2017-10-27T04:54:44.468Z,19.03
2017-10-27T04:57:11.054Z,18.50
2017-10-27T04:59:37.676Z,17.83
2017-10-27T05:02:04.256Z,18.00
2017-10-27T05:04:30.851Z,18.90
2017-10-27T05:06:57.449Z,18.07
2017-10-27T05:09:24.033Z,16.50
2017-10-27T05:11:50.665Z,16.63
2017-10-27T05:14:17.264Z,17.00
2017-10-27T05:16:49.639Z,15.70
2017-10-27T05:19:21.992Z,14.73
2017-10-27T05:21:54.226Z,14.33
2017-10-27T05:24:24.560Z,14.70
2017-10-27T05:26:51.137Z,14.67
2017-10-27T05:29:17.716Z,13.53
2017-10-27T05:31:44.304Z,13.20
2017-10-27T05:34:10.884Z,13.80
2017-10-27T05:36:37.474Z,12.80
2017-10-27T05:39:04.058Z,13.10
2017-10-27T05:41:30.636Z,12.50
2017-10-27T05:43:57.225Z,12.57
2017-10-27T05:46:23.805Z,13.13
2017-10-27T05:48:50.396Z,11.33
2017-10-27T05:51:16.976Z,11.03
2017-10-27T05:53:43.548Z,11.20
2017-10-27T05:56:10.133Z,11.80
2017-10-27T05:58:36.719Z,11.37
2017-10-27T06:01:03.300Z,11.70
2017-10-27T06:03:29.871Z,11.37
2017-10-27T06:05:56.448Z,11.50
2017-10-27T06:08:23.028Z,11.60
2017-10-27T06:10:49.608Z,11.23
2017-10-27T06:13:16.201Z,11.13
2017-10-27T06:15:42.772Z,11.23
2017-10-27T06:18:09.353Z,11.30
2017-10-27T06:20:35.944Z,11.53
2017-10-27T06:23:02.524Z,11.03
2017-10-27T06:25:29.108Z,10.20
2017-10-27T06:27:55.741Z,11.10
2017-10-27T06:30:22.320Z,11.60
2017-10-27T06:32:48.904Z,10.97
2017-10-27T06:35:15.536Z,10.60
2017-10-27T06:37:42.129Z,10.17
2017-10-27T06:42:41.852Z,10.77
2017-10-27T06:45:08.437Z,11.23
2017-10-27T06:47:35.013Z,9.90
2017-10-27T06:50:01.596Z,10.87
2017-10-27T06:52:28.173Z,10.67
2017-10-27T06:54:54.767Z,10.93
2017-10-27T06:57:21.340Z,10.43
2017-10-27T06:59:47.908Z,10.17
2017-10-27T07:02:14.504Z,10.90
2017-10-27T07:04:41.111Z,9.70
2017-10-27T07:07:07.789Z,9.30
2017-10-27T07:09:34.370Z,10.67
2017-10-27T07:12:01.300Z,10.00
2017-10-27T07:14:27.852Z,9.30
2017-10-27T07:16:54.432Z,9.87
2017-10-27T07:19:21.016Z,10.40
2017-10-27T07:21:49.421Z,10.20
2017-10-27T07:24:16.008Z,10.80
2017-10-27T07:26:42.584Z,10.20
2017-10-27T07:29:09.181Z,10.07
2017-10-27T07:31:35.766Z,10.00
2017-10-27T07:34:02.345Z,10.30
2017-10-27T07:36:36.856Z,8.17
2017-10-27T07:39:03.441Z,9.20
2017-10-27T07:41:30.016Z,5.97
2017-10-27T07:43:56.592Z,6.93
2017-10-27T07:46:23.180Z,6.90
2017-10-27T07:48:56.429Z,7.63
2017-10-27T07:51:23.017Z,8.20
2017-10-27T07:53:56.324Z,8.63
2017-10-27T07:56:22.900Z,9.50
2017-10-27T07:58:49.517Z,10.27
2017-10-27T08:01:17.350Z,10.00
2017-10-27T08:03:43.921Z,9.90
2017-10-27T08:06:10.501Z,10.00
2017-10-27T08:08:37.088Z,10.57
2017-10-27T08:11:03.665Z,10.63
2017-10-27T08:13:30.258Z,10.40
2017-10-27T08:16:02.773Z,11.53
2017-10-27T08:18:29.361Z,11.03
2017-10-27T08:20:55.940Z,10.90
2017-10-27T08:23:22.532Z,9.80
2017-10-27T08:25:49.108Z,10.73
2017-10-27T08:28:16.036Z,9.40
2017-10-27T08:30:42.595Z,10.03
2017-10-27T08:33:09.165Z,9.67
2017-10-27T08:35:35.772Z,9.53
2017-10-27T08:38:02.372Z,8.40
2017-10-27T08:40:28.944Z,8.20
2017-10-27T08:42:55.525Z,7.90
2017-10-27T08:45:22.095Z,8.60
2017-10-27T08:47:48.676Z,8.47
2017-10-27T08:50:15.257Z,8.30
2017-10-27T08:52:41.835Z,7.73
2017-10-27T08:55:08.409Z,6.73
2017-10-27T08:57:35.012Z,6.63
2017-10-27T09:00:01.585Z,6.47
2017-10-27T09:02:28.160Z,7.00
2017-10-27T09:04:54.745Z,6.70
2017-10-27T09:07:21.320Z,6.43
2017-10-27T09:09:47.908Z,6.63
2017-10-27T09:12:14.509Z,6.73
2017-10-27T09:14:41.080Z,6.27
2017-10-27T09:17:07.660Z,4.93
2017-10-27T09:19:34.253Z,5.03
2017-10-27T09:22:00.810Z,5.63
2017-10-27T09:24:27.383Z,5.00
2017-10-27T09:26:53.968Z,4.60
2017-10-27T09:29:20.562Z,4.87
2017-10-27T09:31:47.132Z,5.83
2017-10-27T09:34:13.716Z,6.10
2017-10-27T09:36:40.297Z,4.87
2017-10-27T09:39:06.872Z,4.67
2017-10-27T09:41:33.450Z,4.20
2017-10-27T09:44:00.037Z,5.07
2017-10-27T09:46:26.608Z,4.63
2017-10-27T09:48:53.302Z,3.90
2017-10-27T09:51:23.688Z,4.50
2017-10-27T09:53:50.264Z,4.23
2017-10-27T09:56:23.116Z,4.40
2017-10-27T09:58:55.785Z,4.90
2017-10-27T10:01:22.360Z,3.83
2017-10-27T10:03:48.932Z,3.80
2017-10-27T10:06:22.876Z,4.17
2017-10-27T10:08:55.620Z,4.70
2017-10-27T10:11:23.892Z,5.43
2017-10-27T10:13:50.469Z,4.00
2017-10-27T10:16:17.037Z,3.80
2017-10-27T10:18:54.069Z,4.13
2017-10-27T10:21:20.641Z,3.30
2017-10-27T10:23:47.232Z,2.60
2017-10-27T10:26:13.884Z,2.83
2017-10-27T10:28:40.473Z,3.67
2017-10-27T10:31:07.048Z,3.10
2017-10-27T10:33:33.728Z,3.47
2017-10-27T10:36:03.627Z,3.20
2017-10-27T10:38:30.205Z,3.60
2017-10-27T10:40:56.781Z,3.53
2017-10-27T10:43:23.347Z,3.63
2017-10-27T10:45:49.933Z,4.07
2017-10-27T10:48:16.517Z,3.53
2017-10-27T10:50:43.081Z,4.00
2017-10-27T10:53:09.694Z,3.73
2017-10-27T10:55:36.245Z,3.40
2017-10-27T10:58:02.828Z,3.10
2017-10-27T11:00:30.920Z,2.60
2017-10-27T11:02:57.502Z,3.00
2017-10-27T11:05:24.078Z,2.73
2017-10-27T11:07:50.640Z,3.00
2017-10-27T11:10:20.389Z,3.30
2017-10-27T11:12:50.300Z,2.83
2017-10-27T11:15:16.877Z,2.20
2017-10-27T11:17:50.608Z,2.27
2017-10-27T11:20:17.236Z,2.60
2017-10-27T11:22:43.825Z,2.50
2017-10-27T11:25:10.385Z,2.20
2017-10-27T11:27:37.132Z,2.40
2017-10-27T11:30:03.985Z,2.60
2017-10-27T11:32:30.573Z,2.80
2017-10-27T11:34:57.163Z,2.77
2017-10-27T11:37:23.764Z,2.70
2017-10-27T11:40:00.700Z,3.00
2017-10-27T11:42:27.284Z,3.03
2017-10-27T11:44:53.865Z,2.57
2017-10-27T11:47:20.444Z,2.13
2017-10-27T11:49:52.664Z,2.30
2017-10-27T11:52:19.232Z,2.60
2017-10-27T11:54:52.099Z,1.93
2017-10-27T11:57:18.688Z,2.40
2017-10-27T11:59:52.216Z,2.40
2017-10-27T12:02:18.781Z,2.47
2017-10-27T12:04:45.357Z,2.07
2017-10-27T12:07:11.929Z,1.80
2017-10-27T12:09:43.143Z,1.97
2017-10-27T12:12:09.720Z,2.67
2017-10-27T12:14:42.905Z,2.13
2017-10-27T12:17:09.513Z,1.60
2017-10-27T12:19:36.080Z,1.50
2017-10-27T12:22:13.205Z,1.60
2017-10-27T12:24:39.780Z,2.17
2017-10-27T12:27:06.358Z,2.37
2017-10-27T12:29:32.929Z,1.63
2017-10-27T12:31:59.501Z,1.90
2017-10-27T12:34:26.072Z,1.40
2017-10-27T12:36:52.652Z,1.27
2017-10-27T12:39:19.233Z,1.90
2017-10-27T12:41:45.804Z,1.93
2017-10-27T12:44:12.401Z,1.90
2017-10-27T12:46:38.969Z,2.20
2017-10-27T12:49:13.684Z,2.37
2017-10-27T12:51:40.261Z,2.10
2017-10-27T12:54:06.833Z,2.50
2017-10-27T12:56:39.824Z,3.40
2017-10-27T12:59:06.430Z,3.00
2017-10-27T13:01:33.053Z,2.50
2017-10-27T13:03:59.612Z,2.40
2017-10-27T13:06:26.256Z,2.80
2017-10-27T13:08:52.850Z,2.53
2017-10-27T13:11:27.165Z,3.23
2017-10-27T13:13:59.817Z,2.90
2017-10-27T13:16:26.425Z,2.20
2017-10-27T13:18:53.002Z,2.40
2017-10-27T13:21:27.250Z,2.17
2017-10-27T13:23:53.823Z,2.07
2017-10-27T13:26:20.398Z,2.13
2017-10-27T13:28:46.974Z,1.60
2017-10-27T13:31:13.548Z,2.13
2017-10-27T13:33:40.136Z,2.03
2017-10-27T13:36:07.701Z,1.77
2017-10-27T13:38:34.348Z,1.50
2017-10-27T13:41:01.016Z,1.77
2017-10-27T13:43:37.847Z,1.60
2017-10-27T13:46:04.397Z,2.10
2017-10-27T13:48:30.972Z,1.83
2017-10-27T13:51:08.106Z,1.90
2017-10-27T13:53:34.684Z,2.10
2017-10-27T13:56:07.518Z,2.30
2017-10-27T13:58:34.136Z,2.40
2017-10-27T14:01:06.908Z,2.43
2017-10-27T14:03:39.676Z,2.50
2017-10-27T14:06:07.557Z,3.50
2017-10-27T14:08:34.126Z,3.50
2017-10-27T14:11:00.713Z,3.20
2017-10-27T14:13:37.442Z,3.40
2017-10-27T14:16:04.017Z,3.20
2017-10-27T14:18:30.669Z,3.50
2017-10-27T14:20:57.240Z,3.53
2017-10-27T14:23:23.810Z,3.10
2017-10-27T14:25:50.376Z,3.03
2017-10-27T14:28:16.976Z,3.07
2017-10-27T14:30:43.568Z,3.67
2017-10-27T14:33:10.145Z,3.20
2017-10-27T14:35:36.717Z,3.10
2017-10-27T14:38:03.296Z,3.30
2017-10-27T14:40:29.873Z,2.87
2017-10-27T14:42:56.444Z,2.50
2017-10-27T14:45:23.025Z,3.00
2017-10-27T14:47:49.621Z,2.80
2017-10-27T14:50:16.203Z,3.00
2017-10-27T14:52:42.774Z,2.50
2017-10-27T14:55:09.336Z,3.30
2017-10-27T14:57:35.914Z,2.50
2017-10-27T15:00:02.484Z,2.83
2017-10-27T15:02:29.072Z,2.60
2017-10-27T15:04:55.668Z,4.30
2017-10-27T15:07:22.237Z,2.43
2017-10-27T15:09:48.812Z,2.30
2017-10-27T15:12:15.392Z,2.43
2017-10-27T15:14:41.971Z,2.03
2017-10-27T15:17:10.302Z,2.13
2017-10-27T15:19:36.884Z,1.93
2017-10-27T15:22:03.457Z,1.80
2017-10-27T15:24:30.035Z,2.30
2017-10-27T15:26:56.614Z,2.03
2017-10-27T15:29:23.179Z,2.00
2017-10-27T15:31:49.752Z,1.70
2017-10-27T15:34:16.333Z,2.20
2017-10-27T15:36:49.537Z,2.07
2017-10-27T15:39:16.084Z,2.20
2017-10-27T15:41:42.658Z,2.07
2017-10-27T15:44:09.234Z,2.47
2017-10-27T15:46:35.805Z,2.67
2017-10-27T15:49:02.385Z,2.80
2017-10-27T15:51:28.955Z,3.03
2017-10-27T15:53:55.539Z,3.10
2017-10-27T15:56:22.108Z,4.07
2017-10-27T15:58:48.676Z,3.20
2017-10-27T16:01:15.264Z,2.90
2017-10-27T16:03:48.155Z,3.47
2017-10-27T16:06:18.106Z,3.23
2017-10-27T16:08:47.852Z,2.93
2017-10-27T16:11:18.703Z,2.93
2017-10-27T16:13:46.199Z,2.90
2017-10-27T16:16:19.738Z,2.90
2017-10-27T16:18:47.999Z,3.00
2017-10-27T16:21:14.700Z,2.27
2017-10-27T16:23:48.300Z,2.60
2017-10-27T16:26:14.869Z,2.00
2017-10-27T16:28:41.564Z,2.10
2017-10-27T16:31:17.952Z,2.40
2017-10-27T16:33:44.540Z,2.60
2017-10-27T16:36:17.664Z,2.97
2017-10-27T16:38:44.248Z,2.77
2017-10-27T16:41:10.821Z,3.00
2017-10-27T16:43:37.392Z,3.80
2017-10-27T16:46:04.365Z,2.30
2017-10-27T16:48:30.937Z,2.07
2017-10-27T16:50:57.509Z,2.23
2017-10-27T16:53:24.084Z,1.90
2017-10-27T16:55:54.632Z,2.10
2017-10-27T16:58:24.180Z,2.30
2017-10-27T17:00:56.848Z,2.00
2017-10-27T17:03:23.429Z,2.03
2017-10-27T17:05:49.997Z,2.13
2017-10-27T17:08:16.576Z,2.70
2017-10-27T17:10:43.142Z,3.80
2017-10-27T17:13:09.722Z,3.77
2017-10-27T17:15:36.292Z,3.90
2017-10-27T17:18:02.876Z,4.00
2017-10-27T17:20:29.450Z,6.90
2017-10-27T17:22:56.024Z,7.30
2017-10-27T17:25:22.617Z,6.27
2017-10-27T17:27:49.188Z,5.53
2017-10-27T17:30:15.775Z,5.40
2017-10-27T17:32:42.348Z,6.20
2017-10-27T17:35:08.926Z,5.10
2017-10-27T17:37:35.492Z,3.47
2017-10-27T17:40:02.079Z,2.50
2017-10-27T17:42:28.710Z,2.60
2017-10-27T17:44:55.276Z,2.50
2017-10-27T17:47:21.944Z,2.47
2017-10-27T17:49:48.744Z,2.37
2017-10-27T17:52:15.322Z,3.37
2017-10-27T17:54:41.904Z,3.37
2017-10-27T17:57:08.473Z,3.50
2017-10-27T17:59:35.072Z,3.37
2017-10-27T18:02:01.641Z,3.33
2017-10-27T18:04:28.270Z,3.40
2017-10-27T18:06:54.821Z,3.10
2017-10-27T18:09:21.404Z,4.67
2017-10-27T18:11:47.981Z,5.67
2017-10-27T18:14:14.669Z,5.10
2017-10-27T18:16:41.224Z,6.43
2017-10-27T18:19:07.825Z,6.70
2017-10-27T18:21:34.404Z,4.50
2017-10-27T18:24:00.968Z,2.77
2017-10-27T18:26:27.548Z,2.63
2017-10-27T18:28:54.120Z,3.13
2017-10-27T18:31:20.705Z,2.70
2017-10-27T18:33:47.292Z,2.57
2017-10-27T18:36:13.861Z,2.50
2017-10-27T18:38:47.408Z,2.90
2017-10-27T18:41:17.294Z,3.10
2017-10-27T18:43:43.924Z,2.40
2017-10-27T18:46:10.491Z,2.43
2017-10-27T18:48:44.964Z,2.40
2017-10-27T18:51:11.539Z,2.50
2017-10-27T18:53:44.731Z,2.40
2017-10-27T18:56:11.305Z,2.83
2017-10-27T18:58:37.877Z,2.40
2017-10-27T19:01:05.365Z,2.37
2017-10-27T19:03:31.936Z,2.53
2017-10-27T19:05:58.598Z,3.20
2017-10-27T19:08:35.819Z,3.50
2017-10-27T19:11:02.400Z,4.30
2017-10-27T19:13:28.964Z,3.70
2017-10-27T19:15:55.547Z,3.60
2017-10-27T19:18:26.026Z,4.10
2017-10-27T19:20:55.917Z,3.70
2017-10-27T19:23:25.736Z,3.40
2017-10-27T19:25:52.316Z,3.47
2017-10-27T19:28:18.918Z,3.90
2017-10-27T19:30:55.373Z,4.00
2017-10-27T19:33:21.980Z,3.30
2017-10-27T19:35:48.561Z,3.50
2017-10-27T19:38:15.128Z,3.40
2017-10-27T19:40:41.710Z,3.33
2017-10-27T19:43:08.301Z,2.80
2017-10-27T19:45:34.882Z,2.70
2017-10-27T19:48:01.453Z,2.77
2017-10-27T19:50:34.429Z,2.67
2017-10-27T19:53:01.005Z,3.23
2017-10-27T19:55:34.518Z,2.90
2017-10-27T19:58:04.801Z,3.53
2017-10-27T20:00:31.366Z,3.13
2017-10-27T20:02:57.949Z,3.33
2017-10-27T20:05:34.836Z,3.27
2017-10-27T20:08:04.925Z,3.60
2017-10-27T20:10:31.497Z,4.90
2017-10-27T20:12:58.080Z,3.53
2017-10-27T20:15:24.656Z,3.80
2017-10-27T20:17:51.240Z,3.50
2017-10-27T20:20:24.765Z,3.80
2017-10-27T20:22:51.367Z,3.40
2017-10-27T20:25:24.400Z,3.20
2017-10-27T20:27:51.003Z,3.77
2017-10-27T20:30:24.517Z,3.57
2017-10-27T20:32:51.124Z,3.80
2017-10-27T20:35:17.696Z,4.00
2017-10-27T20:37:44.268Z,4.73
2017-10-27T20:40:16.561Z,3.80
2017-10-27T20:42:44.568Z,3.60
2017-10-27T20:45:17.116Z,3.20
2017-10-27T20:47:43.740Z,4.13
2017-10-27T20:50:10.304Z,3.20
2017-10-27T20:52:36.881Z,4.00
2017-10-27T20:55:03.469Z,3.60
2017-10-27T20:57:30.048Z,4.93
2017-10-27T20:59:56.627Z,4.50
2017-10-27T21:02:23.220Z,3.30
2017-10-27T21:04:49.816Z,3.80
2017-10-27T21:07:16.389Z,3.20
2017-10-27T21:09:42.964Z,3.70
2017-10-27T21:12:09.540Z,3.70
2017-10-27T21:14:36.109Z,3.30
2017-10-27T21:17:02.688Z,3.50
2017-10-27T21:19:29.286Z,3.87
2017-10-27T21:21:55.865Z,3.60
2017-10-27T21:24:22.437Z,3.70
2017-10-27T21:26:49.024Z,3.67
2017-10-27T21:29:15.600Z,3.73
2017-10-27T21:31:49.620Z,3.53
2017-10-27T21:34:16.236Z,3.43
2017-10-27T21:36:42.809Z,3.23
2017-10-27T21:39:09.401Z,2.90
2017-10-27T21:41:35.969Z,3.33
2017-10-27T21:44:02.541Z,3.20
2017-10-27T21:46:29.122Z,2.53
2017-10-27T21:48:55.708Z,2.87
2017-10-27T21:51:22.283Z,2.83
2017-10-27T21:53:48.848Z,2.40
2017-10-27T21:56:15.421Z,2.33
2017-10-27T21:58:41.994Z,2.70
2017-10-27T22:01:08.573Z,2.70
2017-10-27T22:03:35.141Z,3.00
2017-10-27T22:06:01.733Z,2.37
2017-10-27T22:08:28.316Z,3.43
2017-10-27T22:10:54.892Z,2.63
2017-10-27T22:13:21.469Z,2.73
2017-10-27T22:15:48.029Z,3.07
2017-10-27T22:18:14.610Z,3.10
2017-10-27T22:20:41.177Z,3.20
2017-10-27T22:23:07.780Z,3.20
2017-10-27T22:25:34.354Z,2.70
2017-10-27T22:28:00.921Z,2.83
2017-10-27T22:30:27.496Z,2.60
2017-10-27T22:32:54.968Z,2.67
2017-10-27T22:35:21.550Z,2.37
2017-10-27T22:37:48.116Z,2.57
2017-10-27T22:40:14.692Z,2.77
2017-10-27T22:42:41.283Z,2.60
2017-10-27T22:45:07.863Z,2.63
2017-10-27T22:47:34.468Z,2.37
2017-10-27T22:50:01.040Z,2.60
2017-10-27T22:52:27.621Z,3.10
2017-10-27T22:54:54.191Z,2.80
2017-10-27T22:57:20.764Z,2.40
2017-10-27T22:59:47.349Z,2.77
2017-10-27T23:02:14.023Z,2.20
2017-10-27T23:04:40.569Z,2.30
2017-10-27T23:07:07.145Z,2.73
2017-10-27T23:09:33.720Z,2.90
2017-10-27T23:12:00.308Z,2.60
2017-10-27T23:14:26.881Z,2.60
2017-10-27T23:16:53.460Z,2.00
2017-10-27T23:19:20.028Z,2.77
2017-10-27T23:21:46.604Z,2.50
2017-10-27T23:24:13.179Z,2.40
2017-10-27T23:26:39.757Z,2.60
2017-10-27T23:29:06.949Z,2.40
2017-10-27T23:31:33.528Z,2.87
2017-10-27T23:34:00.181Z,2.57
2017-10-27T23:36:26.747Z,2.43
2017-10-27T23:38:53.324Z,2.20
2017-10-27T23:41:19.899Z,2.10
2017-10-27T23:43:46.473Z,2.47
2017-10-27T23:46:13.052Z,2.60
2017-10-27T23:48:39.633Z,2.20
2017-10-27T23:51:06.202Z,2.07
2017-10-27T23:53:32.772Z,2.40
2017-10-27T23:55:59.352Z,2.30
2017-10-27T23:58:25.924Z,2.30
